createdAt,value
2023-04-18T00:01:32.654Z,13.6
2023-04-18T00:04:04.686Z,13.5
2023-04-18T00:06:35.089Z,13.6
2023-04-18T00:09:05.664Z,13.4
2023-04-18T00:11:35.829Z,13.6
2023-04-18T00:14:06.011Z,13.6
2023-04-18T00:16:36.845Z,13.4
2023-04-18T00:19:07.578Z,13.5
2023-04-18T00:21:37.851Z,13.4
2023-04-18T00:24:10.465Z,13.4
2023-04-18T00:26:41.864Z,13.4
2023-04-18T00:29:13.673Z,13.4
2023-04-18T00:31:44.119Z,13.4
2023-04-18T00:34:15.133Z,13.5
2023-04-18T00:36:44.880Z,13.6
2023-04-18T00:39:15.705Z,13.5
2023-04-18T00:41:45.789Z,13.6
2023-04-18T00:44:15.065Z,13.6
2023-04-18T00:46:45.709Z,13.5
2023-04-18T00:49:16.475Z,13.6
2023-04-18T00:51:46.304Z,13.6
2023-04-18T00:54:17.252Z,13.4
2023-04-18T00:56:48.167Z,13.5
2023-04-18T00:59:18.719Z,13.4
2023-04-18T01:01:49.309Z,13.6
2023-04-18T01:04:20.469Z,13.6
2023-04-18T01:06:50.971Z,13.4
2023-04-18T01:09:22.283Z,13.4
2023-04-18T01:11:53.213Z,13.6
2023-04-18T01:14:23.859Z,13.5
2023-04-18T01:16:54.647Z,13.5
2023-04-18T01:19:25.785Z,13.4
2023-04-18T01:21:57.120Z,13.2
2023-04-18T01:24:27.816Z,13.3
2023-04-18T01:26:58.403Z,13.2
2023-04-18T01:29:28.815Z,13.2
2023-04-18T01:31:59.871Z,13.1
2023-04-18T01:34:31.284Z,13
2023-04-18T01:37:02.735Z,13.1
2023-04-18T01:39:33.626Z,13.2
2023-04-18T01:42:04.610Z,13.1
2023-04-18T01:44:36.430Z,13.1
2023-04-18T01:47:07.301Z,13.1
2023-04-18T01:49:38.162Z,13.1
2023-04-18T01:52:09.099Z,13.1
2023-04-18T01:54:39.827Z,13.2
2023-04-18T01:57:10.705Z,13.2
2023-04-18T01:59:41.199Z,13.1
2023-04-18T02:02:14.016Z,13.1
2023-04-18T02:04:44.893Z,13.1
2023-04-18T02:07:15.548Z,13.1
2023-04-18T02:09:46.113Z,13.1
2023-04-18T02:12:16.897Z,13.1
2023-04-18T02:14:47.300Z,13.1
2023-04-18T02:17:17.908Z,13
2023-04-18T02:19:49.001Z,13
2023-04-18T02:22:20.158Z,12.9
2023-04-18T02:24:50.237Z,12.9
2023-04-18T02:27:21.089Z,12.9
2023-04-18T02:29:51.959Z,13
2023-04-18T02:32:22.520Z,13
2023-04-18T02:34:53.015Z,13
2023-04-18T02:37:23.948Z,12.9
2023-04-18T02:39:54.064Z,12.9
2023-04-18T02:42:24.552Z,13
2023-04-18T02:44:55.582Z,13
2023-04-18T02:47:26.166Z,13.1
2023-04-18T02:49:56.506Z,12.8
2023-04-18T02:52:27.370Z,12.6
2023-04-18T02:54:58.670Z,12.9
2023-04-18T02:57:29.181Z,13
2023-04-18T02:59:59.810Z,13
2023-04-18T03:02:31.022Z,13
2023-04-18T03:05:02.207Z,12.9
2023-04-18T03:07:32.832Z,13
2023-04-18T03:10:05.024Z,13.1
2023-04-18T03:12:35.621Z,13
2023-04-18T03:15:06.168Z,12.8
2023-04-18T03:17:36.568Z,12.9
2023-04-18T03:20:07.190Z,13
2023-04-18T03:22:37.706Z,13.1
2023-04-18T03:25:08.694Z,13
2023-04-18T03:27:41.397Z,12.9
2023-04-18T03:30:11.471Z,12.9
2023-04-18T03:32:41.933Z,13
2023-04-18T03:35:12.642Z,12.9
2023-04-18T03:37:42.919Z,12.9
2023-04-18T03:40:13.590Z,12.9
2023-04-18T03:42:44.379Z,12.9
2023-04-18T03:45:15.117Z,12.8
2023-04-18T03:47:45.814Z,12.9
2023-04-18T03:50:16.357Z,12.9
2023-04-18T03:52:46.408Z,12.8
2023-04-18T03:55:16.977Z,12.7
2023-04-18T03:57:47.871Z,12.9
2023-04-18T04:00:19.320Z,13
2023-04-18T04:02:51.424Z,12.8
2023-04-18T04:05:21.905Z,12.9
2023-04-18T04:07:53.078Z,12.9
2023-04-18T04:10:24.167Z,12.7
2023-04-18T04:12:54.437Z,12.9
2023-04-18T04:15:25.029Z,12.8
2023-04-18T04:17:55.831Z,12.8
2023-04-18T04:20:26.490Z,12.8
2023-04-18T04:22:57.192Z,12.9
2023-04-18T04:25:28.033Z,12.7
2023-04-18T04:27:58.425Z,12.9
2023-04-18T04:30:29.167Z,13
2023-04-18T04:33:00.042Z,12.9
2023-04-18T04:35:30.596Z,13
2023-04-18T04:38:01.131Z,13
2023-04-18T04:40:32.181Z,12.8
2023-04-18T04:43:02.971Z,12.8
2023-04-18T04:45:33.269Z,12.8
2023-04-18T04:48:07.399Z,13
2023-04-18T04:50:37.905Z,13
2023-04-18T04:53:08.481Z,12.9
2023-04-18T04:55:38.717Z,13
2023-04-18T04:58:09.276Z,13
2023-04-18T05:00:39.821Z,13.1
2023-04-18T05:03:10.178Z,13.1
2023-04-18T05:05:40.239Z,13
2023-04-18T05:08:10.413Z,13
2023-04-18T05:10:41.330Z,13.2
2023-04-18T05:13:11.795Z,13.2
2023-04-18T05:15:41.928Z,13
2023-04-18T05:18:12.896Z,13.2
2023-04-18T05:20:43.566Z,13.2
2023-04-18T05:23:14.138Z,13.2
2023-04-18T05:25:45.267Z,13.2
2023-04-18T05:28:15.984Z,13.4
2023-04-18T05:30:46.981Z,13.3
2023-04-18T05:33:17.144Z,13.3
2023-04-18T05:35:48.444Z,13.3
2023-04-18T05:38:19.234Z,13.4
2023-04-18T05:40:50.211Z,13.5
2023-04-18T05:43:20.872Z,13.5
2023-04-18T05:45:51.618Z,13.6
2023-04-18T05:48:21.896Z,13.6
2023-04-18T05:50:52.561Z,13.5
2023-04-18T05:53:23.272Z,13.3
2023-04-18T05:55:56.305Z,13.5
2023-04-18T05:58:26.234Z,13.3
2023-04-18T06:00:57.457Z,13.6
2023-04-18T06:03:28.373Z,13.5
2023-04-18T06:05:58.304Z,13.6
2023-04-18T06:08:29.363Z,13.6
2023-04-18T06:10:59.803Z,13.7
2023-04-18T06:13:30.758Z,13.6
2023-04-18T06:16:01.144Z,13.6
2023-04-18T06:18:31.521Z,13.6
2023-04-18T06:21:02.522Z,13.4
2023-04-18T06:23:33.344Z,13.6
2023-04-18T06:26:03.378Z,13.3
2023-04-18T06:28:34.960Z,13.4
2023-04-18T06:31:05.952Z,13.5
2023-04-18T06:33:34.322Z,13.5
2023-04-18T06:36:04.868Z,13.7
2023-04-18T06:38:35.339Z,13.8
2023-04-18T06:41:05.991Z,13.9
2023-04-18T06:43:36.554Z,13.9
2023-04-18T06:46:06.587Z,13.9
2023-04-18T06:48:37.480Z,13.6
2023-04-18T06:51:08.482Z,13.8
2023-04-18T06:53:38.892Z,13.9
2023-04-18T06:56:09.404Z,13.7
2023-04-18T06:58:39.790Z,13.8
2023-04-18T07:01:10.163Z,13.7
2023-04-18T07:03:40.610Z,13.9
2023-04-18T07:06:11.442Z,13.9
2023-04-18T07:08:41.996Z,14
2023-04-18T07:11:12.698Z,14
2023-04-18T07:13:43.548Z,14
2023-04-18T07:16:14.101Z,14
2023-04-18T07:18:44.265Z,14.1
2023-04-18T07:21:17.672Z,14
2023-04-18T07:23:47.763Z,14.2
2023-04-18T07:26:18.421Z,14.2
2023-04-18T07:28:48.570Z,14.3
2023-04-18T07:31:18.846Z,14.2
2023-04-18T07:33:49.465Z,14.3
2023-04-18T07:36:19.816Z,14.3
2023-04-18T07:38:50.051Z,14.4
2023-04-18T07:41:20.356Z,14.4
2023-04-18T07:43:51.400Z,14.3
2023-04-18T07:46:22.075Z,14.5
2023-04-18T07:48:52.340Z,14.4
2023-04-18T07:51:22.948Z,14.4
2023-04-18T07:53:53.364Z,14.4
2023-04-18T07:56:23.664Z,14.3
2023-04-18T07:58:52.625Z,14.6
2023-04-18T08:01:23.392Z,14.6
2023-04-18T08:03:54.107Z,14.5
2023-04-18T08:06:24.417Z,14.6
2023-04-18T08:08:55.012Z,14.7
2023-04-18T08:11:25.251Z,14.7
2023-04-18T08:13:55.798Z,14.7
2023-04-18T08:16:26.459Z,14.8
2023-04-18T08:18:55.647Z,14.8
2023-04-18T08:21:26.208Z,14.9
2023-04-18T08:23:56.161Z,14.8
2023-04-18T08:26:26.777Z,14.8
2023-04-18T08:28:57.472Z,14.8
2023-04-18T08:31:28.155Z,14.9
2023-04-18T08:33:58.550Z,15
2023-04-18T08:36:29.118Z,15
2023-04-18T08:38:59.688Z,14.9
2023-04-18T08:41:30.140Z,14.9
2023-04-18T08:44:01.068Z,15.1
2023-04-18T08:46:31.786Z,14.9
2023-04-18T08:49:02.032Z,15
2023-04-18T08:51:32.503Z,14.9
2023-04-18T08:54:02.822Z,15
2023-04-18T08:56:33.201Z,15.2
2023-04-18T08:59:03.503Z,15.3
2023-04-18T09:01:33.791Z,15
2023-04-18T09:04:04.298Z,15.2
2023-04-18T09:06:34.320Z,15.3
2023-04-18T09:09:04.628Z,15.4
2023-04-18T09:11:33.900Z,15.4
2023-04-18T09:14:04.136Z,15.6
2023-04-18T09:16:34.813Z,15.6
2023-04-18T09:19:08.382Z,15.6
2023-04-18T09:21:38.988Z,15.5
2023-04-18T09:24:10.223Z,15.5
2023-04-18T09:26:40.302Z,15.6
2023-04-18T09:29:09.045Z,15.7
2023-04-18T09:31:39.157Z,15.8
2023-04-18T09:34:09.113Z,15.8
2023-04-18T09:36:39.488Z,15.8
2023-04-18T09:39:10.539Z,16
2023-04-18T09:41:43.085Z,16.1
2023-04-18T09:44:15.190Z,15.9
2023-04-18T09:46:46.150Z,15.9
2023-04-18T09:49:15.110Z,16.2
2023-04-18T09:51:45.179Z,16.3
2023-04-18T09:54:15.211Z,16.2
2023-04-18T09:56:45.276Z,16.4
2023-04-18T09:59:15.805Z,16.5
2023-04-18T10:01:46.140Z,16.6
2023-04-18T10:04:16.663Z,16.3
2023-04-18T10:06:46.344Z,16.5
2023-04-18T10:09:16.872Z,16.6
2023-04-18T10:11:46.948Z,16.8
2023-04-18T10:14:17.409Z,16.5
2023-04-18T10:16:48.601Z,16.6
2023-04-18T10:19:17.628Z,16.9
2023-04-18T10:21:47.940Z,16.8
2023-04-18T10:24:19.116Z,16.7
2023-04-18T10:26:49.348Z,16.9
2023-04-18T10:29:19.782Z,16.9
2023-04-18T10:31:50.473Z,17
2023-04-18T10:34:21.035Z,16.8
2023-04-18T10:36:51.541Z,16.9
2023-04-18T10:39:22.435Z,16.9
2023-04-18T10:41:53.018Z,16.9
2023-04-18T10:44:23.894Z,16.9
2023-04-18T10:46:54.057Z,16.8
2023-04-18T10:49:25.329Z,16.8
2023-04-18T10:51:53.528Z,16.7
2023-04-18T10:54:22.238Z,16.8
2023-04-18T10:56:52.974Z,16.8
2023-04-18T10:59:23.958Z,17
2023-04-18T11:01:54.129Z,16.7
2023-04-18T11:04:24.524Z,16.8
2023-04-18T11:06:55.446Z,16.8
2023-04-18T11:09:24.389Z,16.9
2023-04-18T11:11:54.909Z,16.9
2023-04-18T11:14:25.842Z,16.9
2023-04-18T11:16:55.942Z,16.8
2023-04-18T11:19:26.583Z,16.7
2023-04-18T11:21:56.806Z,16.6
2023-04-18T11:24:27.379Z,16.6
2023-04-18T11:26:57.585Z,16.6
2023-04-18T11:29:27.963Z,16.5
2023-04-18T11:31:58.853Z,16.5
2023-04-18T11:34:28.543Z,16.6
2023-04-18T11:36:59.110Z,16.7
2023-04-18T11:39:29.965Z,16.7
2023-04-18T11:42:00.289Z,16.8
2023-04-18T11:44:31.054Z,16.8
2023-04-18T11:47:01.660Z,16.6
2023-04-18T11:49:32.297Z,16.7
2023-04-18T11:52:02.533Z,16.6
2023-04-18T11:54:32.812Z,16.6
2023-04-18T11:57:03.495Z,16.8
2023-04-18T11:59:33.668Z,16.7
2023-04-18T12:02:15.193Z,16.6
2023-04-18T12:04:34.732Z,16.8
2023-04-18T12:07:05.004Z,16.7
2023-04-18T12:09:35.302Z,16.6
2023-04-18T12:12:05.434Z,16.6
2023-04-18T12:14:38.585Z,16.6
2023-04-18T12:17:08.847Z,16.6
2023-04-18T12:19:39.071Z,16.6
2023-04-18T12:22:09.567Z,16.7
2023-04-18T12:24:39.889Z,16.5
2023-04-18T12:27:10.198Z,16.6
2023-04-18T12:29:40.410Z,16.7
2023-04-18T12:32:11.115Z,16.6
2023-04-18T12:34:41.424Z,16.7
2023-04-18T12:37:11.978Z,16.6
2023-04-18T12:39:42.762Z,16.5
2023-04-18T12:42:11.726Z,16.6
2023-04-18T12:44:41.851Z,16.6
2023-04-18T12:47:12.590Z,16.6
2023-04-18T12:49:42.902Z,16.6
2023-04-18T12:52:13.441Z,16.6
2023-04-18T12:54:43.578Z,16.7
2023-04-18T12:57:14.395Z,16.7
2023-04-18T12:59:44.729Z,16.7
2023-04-18T13:02:15.372Z,16.7
2023-04-18T13:04:46.120Z,16.8
2023-04-18T13:07:16.981Z,16.8
2023-04-18T13:09:49.990Z,16.9
2023-04-18T13:12:20.539Z,16.9
2023-04-18T13:14:51.222Z,16.9
2023-04-18T13:17:21.949Z,17
2023-04-18T13:19:51.838Z,16.9
2023-04-18T13:22:22.194Z,17.1
2023-04-18T13:24:53.331Z,17
2023-04-18T13:27:24.084Z,17
2023-04-18T13:29:55.280Z,17
2023-04-18T13:32:25.643Z,16.9
2023-04-18T13:34:55.804Z,17
2023-04-18T13:37:26.756Z,17
2023-04-18T13:39:57.560Z,17
2023-04-18T13:42:28.206Z,16.9
2023-04-18T13:44:58.461Z,16.9
2023-04-18T13:47:28.949Z,17.1
2023-04-18T13:49:59.463Z,17
2023-04-18T13:52:29.968Z,17
2023-04-18T13:55:00.420Z,16.9
2023-04-18T13:57:31.129Z,17
2023-04-18T14:00:01.549Z,16.8
2023-04-18T14:02:31.667Z,16.7
2023-04-18T14:05:02.769Z,16.9
2023-04-18T14:07:33.409Z,16.9
2023-04-18T14:10:04.186Z,16.8
2023-04-18T14:12:34.443Z,16.8
2023-04-18T14:15:05.144Z,16.8
2023-04-18T14:17:35.572Z,16.8
2023-04-18T14:20:05.875Z,16.8
2023-04-18T14:22:36.378Z,16.9
2023-04-18T14:25:07.154Z,16.9
2023-04-18T14:27:37.425Z,16.8
2023-04-18T14:30:07.828Z,16.8
2023-04-18T14:32:38.284Z,16.7
2023-04-18T14:35:08.664Z,16.7
2023-04-18T14:37:39.095Z,16.8
2023-04-18T14:40:09.689Z,16.7
2023-04-18T14:42:40.340Z,16.7
2023-04-18T14:45:10.596Z,16.8
2023-04-18T14:47:41.538Z,16.6
2023-04-18T14:50:12.494Z,16.7
2023-04-18T14:52:42.795Z,16.7
2023-04-18T14:55:12.952Z,16.7
2023-04-18T14:57:47.507Z,16.6
2023-04-18T15:00:17.479Z,16.7
2023-04-18T15:02:48.816Z,16.8
2023-04-18T15:05:19.559Z,16.8
2023-04-18T15:07:49.768Z,16.7
2023-04-18T15:10:20.762Z,16.6
2023-04-18T15:12:52.208Z,16.8
2023-04-18T15:15:22.990Z,16.9
2023-04-18T15:17:53.342Z,16.9
2023-04-18T15:20:24.185Z,16.9
2023-04-18T15:22:54.072Z,16.9
2023-04-18T15:25:24.523Z,17
2023-04-18T15:27:58.552Z,17
2023-04-18T15:30:29.080Z,16.8
2023-04-18T15:32:59.442Z,16.8
2023-04-18T15:35:28.244Z,17
2023-04-18T15:37:58.476Z,17
2023-04-18T15:40:28.779Z,17
2023-04-18T15:43:01.231Z,16.9
2023-04-18T15:45:31.458Z,16.7
2023-04-18T15:48:01.732Z,16.8
2023-04-18T15:50:33.510Z,16.9
2023-04-18T15:53:02.306Z,17
2023-04-18T15:55:33.062Z,16.9
2023-04-18T15:58:03.965Z,17
2023-04-18T16:00:34.651Z,16.9
2023-04-18T16:03:04.640Z,16.9
2023-04-18T16:05:35.563Z,16.8
2023-04-18T16:08:05.611Z,16.8
2023-04-18T16:10:34.390Z,16.8
2023-04-18T16:13:05.009Z,16.8
2023-04-18T16:15:35.656Z,16.8
2023-04-18T16:18:07.053Z,16.8
2023-04-18T16:20:37.508Z,16.7
2023-04-18T16:23:07.725Z,16.7
2023-04-18T16:25:42.099Z,16.7
2023-04-18T16:28:12.269Z,16.7
2023-04-18T16:30:43.256Z,16.7
2023-04-18T16:33:14.473Z,16.6
2023-04-18T16:35:44.609Z,16.5
2023-04-18T16:38:17.443Z,16.5
2023-04-18T16:40:50.283Z,16.5
2023-04-18T16:43:20.614Z,16.4
2023-04-18T16:45:51.039Z,16.5
2023-04-18T16:48:23.880Z,16.5
2023-04-18T16:50:55.016Z,16.4
2023-04-18T16:53:25.648Z,16.4
2023-04-18T16:56:01.945Z,16.3
2023-04-18T16:58:32.166Z,16.2
2023-04-18T17:01:02.816Z,16.2
2023-04-18T17:03:35.218Z,16.2
2023-04-18T17:06:09.401Z,16.1
2023-04-18T17:08:41.492Z,16.1
2023-04-18T17:11:20.843Z,16.1
2023-04-18T17:13:51.245Z,16
2023-04-18T17:16:21.595Z,16
2023-04-18T17:18:51.733Z,16
2023-04-18T17:21:22.028Z,15.9
2023-04-18T17:23:52.089Z,15.9
2023-04-18T17:26:23.584Z,15.9
2023-04-18T17:28:54.163Z,15.8
2023-04-18T17:31:25.707Z,15.8
2023-04-18T17:33:56.901Z,15.9
2023-04-18T17:36:28.185Z,15.8
2023-04-18T17:38:58.322Z,15.8
2023-04-18T17:41:31.474Z,15.8
2023-04-18T17:44:02.503Z,15.7
2023-04-18T17:46:32.763Z,15.7
2023-04-18T17:49:03.068Z,15.7
2023-04-18T17:51:33.548Z,15.6
2023-04-18T17:54:03.980Z,15.6
2023-04-18T17:56:34.936Z,15.6
2023-04-18T17:59:09.755Z,15.6
2023-04-18T18:01:49.101Z,15.6
2023-04-18T18:04:19.650Z,15.6
2023-04-18T18:06:53.158Z,15.6
2023-04-18T18:09:25.160Z,15.6
2023-04-18T18:11:56.090Z,15.5
2023-04-18T18:14:25.871Z,15.5
2023-04-18T18:16:58.992Z,15.5
2023-04-18T18:19:29.463Z,15.5
2023-04-18T18:22:03.326Z,15.5
2023-04-18T18:24:42.689Z,15.4
2023-04-18T18:27:12.689Z,15.5
2023-04-18T18:29:42.655Z,15.4
2023-04-18T18:32:13.303Z,15.5
2023-04-18T18:34:43.574Z,15.5
2023-04-18T18:37:15.168Z,15.4
2023-04-18T18:39:45.723Z,15.4
2023-04-18T18:42:19.865Z,15.4
2023-04-18T18:44:51.297Z,15.5
2023-04-18T18:47:22.928Z,15.5
2023-04-18T18:49:54.604Z,15.5
2023-04-18T18:52:25.007Z,15.5
2023-04-18T18:54:55.028Z,15.5
2023-04-18T18:57:25.533Z,15.5
2023-04-18T18:59:56.149Z,15.5
2023-04-18T19:02:28.387Z,15.5
2023-04-18T19:05:01.480Z,15.3
2023-04-18T19:07:31.251Z,15.3
2023-04-18T19:10:01.183Z,15.4
2023-04-18T19:12:31.385Z,15.3
2023-04-18T19:15:03.687Z,15.3
2023-04-18T19:17:36.208Z,15.3
2023-04-18T19:20:08.559Z,15.3
2023-04-18T19:22:47.917Z,15.3
2023-04-18T19:25:18.200Z,15.3
2023-04-18T19:27:48.943Z,15.3
2023-04-18T19:30:22.183Z,15.3
2023-04-18T19:32:52.679Z,15.3
2023-04-18T19:35:22.739Z,15.3
2023-04-18T19:37:53.141Z,15.3
2023-04-18T19:40:23.400Z,15.4
2023-04-18T19:42:53.919Z,15.4
2023-04-18T19:45:30.380Z,15.3
2023-04-18T19:48:00.790Z,15.2
2023-04-18T19:50:31.682Z,15.1
2023-04-18T19:53:01.989Z,15.1
2023-04-18T19:55:33.209Z,15.1
2023-04-18T19:58:04.902Z,15
2023-04-18T20:00:36.597Z,15.1
2023-04-18T20:03:07.418Z,15.1
2023-04-18T20:05:40.661Z,15
2023-04-18T20:08:10.804Z,15
2023-04-18T20:10:41.280Z,15
2023-04-18T20:13:11.701Z,15.1
2023-04-18T20:15:55.137Z,15
2023-04-18T20:18:27.327Z,15
2023-04-18T20:20:57.688Z,15
2023-04-18T20:23:27.906Z,15
2023-04-18T20:25:59.365Z,15
2023-04-18T20:28:29.986Z,15.1
2023-04-18T20:31:02.356Z,15.1
2023-04-18T20:33:35.537Z,15.2
2023-04-18T20:36:08.628Z,15.2
2023-04-18T20:38:41.793Z,15.2
2023-04-18T20:41:16.309Z,15.2
2023-04-18T20:43:48.452Z,15.2
2023-04-18T20:46:24.959Z,15.1
2023-04-18T20:49:03.979Z,15.2
2023-04-18T20:51:37.027Z,15.1
2023-04-18T20:54:10.401Z,15
2023-04-18T20:56:40.676Z,15
2023-04-18T20:59:11.391Z,14.9
2023-04-18T21:01:43.294Z,14.9
2023-04-18T21:04:14.093Z,14.9
2023-04-18T21:06:43.694Z,14.8
2023-04-18T21:09:17.380Z,14.7
2023-04-18T21:11:47.973Z,14.8
2023-04-18T21:14:19.346Z,14.8
2023-04-18T21:16:51.526Z,14.8
2023-04-18T21:19:28.309Z,14.8
2023-04-18T21:22:02.216Z,14.8
2023-04-18T21:24:33.356Z,14.8
2023-04-18T21:27:03.903Z,14.7
2023-04-18T21:29:34.740Z,14.7
2023-04-18T21:32:05.211Z,14.7
2023-04-18T21:34:36.255Z,14.7
2023-04-18T21:37:05.710Z,14.6
2023-04-18T21:39:35.661Z,14.6
2023-04-18T21:42:06.433Z,14.6
2023-04-18T21:44:37.788Z,14.6
2023-04-18T21:47:16.963Z,14.7
2023-04-18T21:49:49.765Z,14.6
2023-04-18T21:52:20.459Z,14.5
2023-04-18T21:54:51.466Z,14.5
2023-04-18T21:57:22.058Z,14.5
2023-04-18T21:59:52.463Z,14.4
2023-04-18T22:02:31.738Z,14.4
2023-04-18T22:05:00.021Z,14.3
2023-04-18T22:07:34.223Z,14.3
2023-04-18T22:10:04.476Z,14.3
2023-04-18T22:12:38.816Z,14.4
2023-04-18T22:15:12.140Z,14.4
2023-04-18T22:17:42.671Z,14.3
2023-04-18T22:20:13.749Z,14.3
2023-04-18T22:22:44.613Z,14.3
2023-04-18T22:25:20.690Z,14.1
2023-04-18T22:28:05.593Z,14.3
2023-04-18T22:30:42.308Z,14.3
2023-04-18T22:33:16.210Z,14.4
2023-04-18T22:35:48.495Z,14.4
2023-04-18T22:38:21.512Z,14.4
2023-04-18T22:40:52.114Z,14.4
2023-04-18T22:43:22.707Z,14.3
2023-04-18T22:45:58.356Z,14.3
2023-04-18T22:51:05.022Z,14.3
2023-04-18T22:53:39.127Z,14.3
2023-04-18T22:56:14.623Z,14.2
2023-04-18T22:58:47.944Z,14.1
2023-04-18T23:01:19.026Z,14.1
2023-04-18T23:03:53.465Z,14.1
2023-04-18T23:06:24.092Z,14.1
2023-04-18T23:08:54.836Z,14
2023-04-18T23:11:27.884Z,14
2023-04-18T23:13:58.760Z,14.1
2023-04-18T23:16:31.212Z,14.1
2023-04-18T23:19:05.693Z,14
2023-04-18T23:21:36.094Z,14
2023-04-18T23:24:07.052Z,14.1
2023-04-18T23:26:37.433Z,13.9
2023-04-18T23:29:08.035Z,13.9
2023-04-18T23:31:39.047Z,13.8
2023-04-18T23:34:09.612Z,13.7
2023-04-18T23:36:41.744Z,13.7
2023-04-18T23:39:14.859Z,13.7
2023-04-18T23:41:45.409Z,13.7
2023-04-18T23:44:16.140Z,13.5
2023-04-18T23:46:47.427Z,13.6
2023-04-18T23:49:18.614Z,13.5
2023-04-18T23:51:49.263Z,13.6
2023-04-18T23:54:20.165Z,13.5
2023-04-18T23:56:50.940Z,13.6
2023-04-18T23:59:21.982Z,13.6
